sensor_id;sensor_type;location;lat;lon;timestamp;P1;durP1;ratioP1;P2;durP2;ratioP2
45198;SDS011;30941;46.422;18.772;2022-11-15T00:01:58;54.72;;;28.60;;
45198;SDS011;30941;46.422;18.772;2022-11-15T00:04:24;59.13;;;28.98;;
45198;SDS011;30941;46.422;18.772;2022-11-15T00:06:49;62.63;;;30.80;;
45198;SDS011;30941;46.422;18.772;2022-11-15T00:09:15;66.43;;;30.90;;
45198;SDS011;30941;46.422;18.772;2022-11-15T00:11:40;61.22;;;30.38;;
45198;SDS011;30941;46.422;18.772;2022-11-15T00:14:05;60.92;;;30.15;;
45198;SDS011;30941;46.422;18.772;2022-11-15T00:16:31;63.05;;;30.80;;
45198;SDS011;30941;46.422;18.772;2022-11-15T00:18:56;59.85;;;29.73;;
45198;SDS011;30941;46.422;18.772;2022-11-15T00:21:22;60.67;;;30.00;;
45198;SDS011;30941;46.422;18.772;2022-11-15T00:23:47;59.63;;;30.00;;
45198;SDS011;30941;46.422;18.772;2022-11-15T00:26:13;55.03;;;30.00;;
45198;SDS011;30941;46.422;18.772;2022-11-15T00:28:40;56.55;;;29.25;;
45198;SDS011;30941;46.422;18.772;2022-11-15T00:31:07;56.08;;;29.13;;
45198;SDS011;30941;46.422;18.772;2022-11-15T00:33:34;54.63;;;28.38;;
45198;SDS011;30941;46.422;18.772;2022-11-15T00:36:00;56.05;;;27.95;;
45198;SDS011;30941;46.422;18.772;2022-11-15T00:38:33;53.25;;;28.95;;
45198;SDS011;30941;46.422;18.772;2022-11-15T00:40:59;49.50;;;28.33;;
45198;SDS011;30941;46.422;18.772;2022-11-15T00:43:25;52.40;;;28.42;;
45198;SDS011;30941;46.422;18.772;2022-11-15T00:45:50;55.20;;;29.92;;
45198;SDS011;30941;46.422;18.772;2022-11-15T00:48:15;57.33;;;29.00;;
45198;SDS011;30941;46.422;18.772;2022-11-15T00:50:41;54.70;;;27.45;;
45198;SDS011;30941;46.422;18.772;2022-11-15T00:53:06;53.30;;;28.58;;
45198;SDS011;30941;46.422;18.772;2022-11-15T00:55:31;59.28;;;31.80;;
45198;SDS011;30941;46.422;18.772;2022-11-15T00:57:57;55.53;;;29.27;;
45198;SDS011;30941;46.422;18.772;2022-11-15T01:00:22;59.70;;;29.90;;
45198;SDS011;30941;46.422;18.772;2022-11-15T01:02:48;61.78;;;29.10;;
45198;SDS011;30941;46.422;18.772;2022-11-15T01:05:13;62.95;;;30.50;;
45198;SDS011;30941;46.422;18.772;2022-11-15T01:07:38;61.78;;;30.90;;
45198;SDS011;30941;46.422;18.772;2022-11-15T01:10:04;57.95;;;30.33;;
45198;SDS011;30941;46.422;18.772;2022-11-15T01:12:30;57.50;;;28.05;;
45198;SDS011;30941;46.422;18.772;2022-11-15T01:14:56;64.25;;;30.38;;
45198;SDS011;30941;46.422;18.772;2022-11-15T01:17:21;60.70;;;29.83;;
45198;SDS011;30941;46.422;18.772;2022-11-15T01:19:46;58.38;;;31.27;;
45198;SDS011;30941;46.422;18.772;2022-11-15T01:22:12;62.80;;;28.92;;
45198;SDS011;30941;46.422;18.772;2022-11-15T01:24:37;62.47;;;30.65;;
45198;SDS011;30941;46.422;18.772;2022-11-15T01:27:03;64.07;;;30.30;;
45198;SDS011;30941;46.422;18.772;2022-11-15T01:29:28;63.00;;;31.02;;
45198;SDS011;30941;46.422;18.772;2022-11-15T01:31:53;75.80;;;33.35;;
45198;SDS011;30941;46.422;18.772;2022-11-15T01:34:19;72.78;;;32.22;;
45198;SDS011;30941;46.422;18.772;2022-11-15T01:36:44;75.82;;;33.67;;
45198;SDS011;30941;46.422;18.772;2022-11-15T01:39:09;65.47;;;31.80;;
45198;SDS011;30941;46.422;18.772;2022-11-15T01:41:35;69.80;;;33.53;;
45198;SDS011;30941;46.422;18.772;2022-11-15T01:47:02;77.18;;;33.53;;
45198;SDS011;30941;46.422;18.772;2022-11-15T01:49:30;70.50;;;33.03;;
45198;SDS011;30941;46.422;18.772;2022-11-15T01:51:57;65.88;;;32.25;;
45198;SDS011;30941;46.422;18.772;2022-11-15T01:54:24;71.80;;;34.47;;
45198;SDS011;30941;46.422;18.772;2022-11-15T01:56:52;72.57;;;33.72;;
45198;SDS011;30941;46.422;18.772;2022-11-15T01:59:19;70.15;;;34.83;;
45198;SDS011;30941;46.422;18.772;2022-11-15T02:01:45;66.95;;;34.47;;
45198;SDS011;30941;46.422;18.772;2022-11-15T02:04:19;68.40;;;33.50;;
45198;SDS011;30941;46.422;18.772;2022-11-15T02:06:48;65.97;;;34.08;;
45198;SDS011;30941;46.422;18.772;2022-11-15T02:09:13;66.15;;;32.05;;
45198;SDS011;30941;46.422;18.772;2022-11-15T02:11:39;73.00;;;32.03;;
45198;SDS011;30941;46.422;18.772;2022-11-15T02:14:05;67.88;;;34.15;;
45198;SDS011;30941;46.422;18.772;2022-11-15T02:22:19;66.15;;;33.25;;
45198;SDS011;30941;46.422;18.772;2022-11-15T02:35:41;77.72;;;34.47;;
45198;SDS011;30941;46.422;18.772;2022-11-15T02:38:21;65.45;;;33.63;;
45198;SDS011;30941;46.422;18.772;2022-11-15T02:49:23;84.80;;;37.80;;
45198;SDS011;30941;46.422;18.772;2022-11-15T02:51:50;82.57;;;37.53;;
45198;SDS011;30941;46.422;18.772;2022-11-15T02:54:23;93.38;;;38.40;;
45198;SDS011;30941;46.422;18.772;2022-11-15T02:56:51;85.68;;;37.58;;
45198;SDS011;30941;46.422;18.772;2022-11-15T03:05:08;98.93;;;38.63;;
45198;SDS011;30941;46.422;18.772;2022-11-15T03:07:38;90.13;;;36.00;;
45198;SDS011;30941;46.422;18.772;2022-11-15T03:10:26;83.05;;;36.80;;
45198;SDS011;30941;46.422;18.772;2022-11-15T03:13:05;76.13;;;35.00;;
45198;SDS011;30941;46.422;18.772;2022-11-15T03:15:41;76.35;;;36.55;;
45198;SDS011;30941;46.422;18.772;2022-11-15T03:18:11;72.00;;;35.53;;
45198;SDS011;30941;46.422;18.772;2022-11-15T03:20:40;67.97;;;33.40;;
45198;SDS011;30941;46.422;18.772;2022-11-15T03:23:08;67.85;;;34.75;;
45198;SDS011;30941;46.422;18.772;2022-11-15T03:25:34;69.68;;;37.35;;
45198;SDS011;30941;46.422;18.772;2022-11-15T03:28:03;69.95;;;35.13;;
45198;SDS011;30941;46.422;18.772;2022-11-15T03:30:31;65.80;;;34.33;;
45198;SDS011;30941;46.422;18.772;2022-11-15T03:32:58;60.40;;;32.42;;
45198;SDS011;30941;46.422;18.772;2022-11-15T03:35:25;66.85;;;33.28;;
45198;SDS011;30941;46.422;18.772;2022-11-15T03:38:10;66.55;;;34.03;;
45198;SDS011;30941;46.422;18.772;2022-11-15T03:40:41;72.95;;;33.63;;
45198;SDS011;30941;46.422;18.772;2022-11-15T03:45:55;73.00;;;33.90;;
45198;SDS011;30941;46.422;18.772;2022-11-15T03:48:24;76.43;;;34.70;;
45198;SDS011;30941;46.422;18.772;2022-11-15T03:50:51;81.05;;;37.53;;
45198;SDS011;30941;46.422;18.772;2022-11-15T03:53:17;74.72;;;35.90;;
45198;SDS011;30941;46.422;18.772;2022-11-15T03:55:42;68.30;;;35.97;;
45198;SDS011;30941;46.422;18.772;2022-11-15T03:58:08;73.25;;;34.60;;
45198;SDS011;30941;46.422;18.772;2022-11-15T04:00:33;65.28;;;34.97;;
45198;SDS011;30941;46.422;18.772;2022-11-15T04:02:58;62.75;;;33.42;;
45198;SDS011;30941;46.422;18.772;2022-11-15T04:05:24;68.03;;;34.25;;
45198;SDS011;30941;46.422;18.772;2022-11-15T04:07:49;63.72;;;32.63;;
45198;SDS011;30941;46.422;18.772;2022-11-15T04:10:15;69.32;;;32.42;;
45198;SDS011;30941;46.422;18.772;2022-11-15T04:12:42;65.75;;;32.40;;
45198;SDS011;30941;46.422;18.772;2022-11-15T04:15:12;63.35;;;33.08;;
45198;SDS011;30941;46.422;18.772;2022-11-15T04:20:24;60.77;;;31.67;;
45198;SDS011;30941;46.422;18.772;2022-11-15T04:23:16;63.55;;;32.65;;
45198;SDS011;30941;46.422;18.772;2022-11-15T04:26:03;57.47;;;31.13;;
45198;SDS011;30941;46.422;18.772;2022-11-15T04:28:30;58.17;;;31.52;;
45198;SDS011;30941;46.422;18.772;2022-11-15T04:30:55;61.05;;;32.20;;
45198;SDS011;30941;46.422;18.772;2022-11-15T04:33:21;58.65;;;32.20;;
45198;SDS011;30941;46.422;18.772;2022-11-15T04:35:46;64.22;;;32.83;;
45198;SDS011;30941;46.422;18.772;2022-11-15T04:38:32;60.92;;;31.13;;
45198;SDS011;30941;46.422;18.772;2022-11-15T04:40:57;66.05;;;33.40;;
45198;SDS011;30941;46.422;18.772;2022-11-15T04:43:23;63.05;;;33.13;;
45198;SDS011;30941;46.422;18.772;2022-11-15T04:45:48;70.57;;;33.35;;
45198;SDS011;30941;46.422;18.772;2022-11-15T04:48:13;66.13;;;34.97;;
45198;SDS011;30941;46.422;18.772;2022-11-15T04:50:39;68.28;;;33.55;;
45198;SDS011;30941;46.422;18.772;2022-11-15T04:53:04;65.38;;;34.85;;
45198;SDS011;30941;46.422;18.772;2022-11-15T04:55:29;68.85;;;34.03;;
45198;SDS011;30941;46.422;18.772;2022-11-15T04:57:58;64.47;;;32.55;;
45198;SDS011;30941;46.422;18.772;2022-11-15T05:00:24;67.15;;;32.88;;
45198;SDS011;30941;46.422;18.772;2022-11-15T05:02:51;68.65;;;34.85;;
45198;SDS011;30941;46.422;18.772;2022-11-15T05:05:34;65.80;;;33.22;;
45198;SDS011;30941;46.422;18.772;2022-11-15T05:08:00;66.30;;;33.05;;
45198;SDS011;30941;46.422;18.772;2022-11-15T05:10:25;73.13;;;33.63;;
45198;SDS011;30941;46.422;18.772;2022-11-15T05:12:50;73.85;;;37.15;;
45198;SDS011;30941;46.422;18.772;2022-11-15T05:15:16;67.53;;;34.65;;
45198;SDS011;30941;46.422;18.772;2022-11-15T05:17:41;65.10;;;34.28;;
45198;SDS011;30941;46.422;18.772;2022-11-15T05:20:06;71.53;;;34.03;;
45198;SDS011;30941;46.422;18.772;2022-11-15T05:22:32;69.88;;;33.50;;
45198;SDS011;30941;46.422;18.772;2022-11-15T05:24:57;66.85;;;34.85;;
45198;SDS011;30941;46.422;18.772;2022-11-15T05:27:23;65.53;;;34.88;;
45198;SDS011;30941;46.422;18.772;2022-11-15T05:29:48;68.75;;;35.40;;
45198;SDS011;30941;46.422;18.772;2022-11-15T05:32:13;66.80;;;33.85;;
45198;SDS011;30941;46.422;18.772;2022-11-15T05:34:39;73.63;;;35.85;;
45198;SDS011;30941;46.422;18.772;2022-11-15T05:37:04;67.78;;;34.10;;
45198;SDS011;30941;46.422;18.772;2022-11-15T05:39:30;68.68;;;34.50;;
45198;SDS011;30941;46.422;18.772;2022-11-15T05:42:04;68.45;;;35.10;;
45198;SDS011;30941;46.422;18.772;2022-11-15T05:44:32;71.25;;;34.35;;
45198;SDS011;30941;46.422;18.772;2022-11-15T05:46:58;66.60;;;35.50;;
45198;SDS011;30941;46.422;18.772;2022-11-15T05:49:24;65.57;;;34.22;;
45198;SDS011;30941;46.422;18.772;2022-11-15T05:51:53;68.82;;;35.88;;
45198;SDS011;30941;46.422;18.772;2022-11-15T05:54:19;64.40;;;33.25;;
45198;SDS011;30941;46.422;18.772;2022-11-15T05:56:45;70.63;;;35.30;;
45198;SDS011;30941;46.422;18.772;2022-11-15T05:59:10;70.28;;;34.53;;
45198;SDS011;30941;46.422;18.772;2022-11-15T06:01:36;62.97;;;33.40;;
45198;SDS011;30941;46.422;18.772;2022-11-15T06:04:02;75.30;;;37.42;;
45198;SDS011;30941;46.422;18.772;2022-11-15T06:06:28;72.53;;;35.35;;
45198;SDS011;30941;46.422;18.772;2022-11-15T06:08:53;68.25;;;36.85;;
45198;SDS011;30941;46.422;18.772;2022-11-15T06:11:19;76.50;;;38.58;;
45198;SDS011;30941;46.422;18.772;2022-11-15T06:13:44;76.13;;;37.67;;
45198;SDS011;30941;46.422;18.772;2022-11-15T06:16:10;66.05;;;35.22;;
45198;SDS011;30941;46.422;18.772;2022-11-15T06:18:35;64.45;;;35.22;;
45198;SDS011;30941;46.422;18.772;2022-11-15T06:21:01;64.55;;;34.80;;
45198;SDS011;30941;46.422;18.772;2022-11-15T06:23:27;62.75;;;34.50;;
45198;SDS011;30941;46.422;18.772;2022-11-15T06:25:53;61.58;;;34.67;;
45198;SDS011;30941;46.422;18.772;2022-11-15T06:28:18;60.42;;;33.90;;
45198;SDS011;30941;46.422;18.772;2022-11-15T06:30:43;65.20;;;33.83;;
45198;SDS011;30941;46.422;18.772;2022-11-15T06:33:09;55.25;;;33.70;;
45198;SDS011;30941;46.422;18.772;2022-11-15T06:35:34;55.30;;;33.08;;
45198;SDS011;30941;46.422;18.772;2022-11-15T06:38:08;66.53;;;33.70;;
45198;SDS011;30941;46.422;18.772;2022-11-15T06:43:04;57.13;;;31.35;;
45198;SDS011;30941;46.422;18.772;2022-11-15T06:45:30;62.60;;;33.15;;
45198;SDS011;30941;46.422;18.772;2022-11-15T06:47:56;54.08;;;31.88;;
45198;SDS011;30941;46.422;18.772;2022-11-15T06:50:22;61.10;;;33.80;;
45198;SDS011;30941;46.422;18.772;2022-11-15T06:52:47;57.28;;;32.67;;
45198;SDS011;30941;46.422;18.772;2022-11-15T06:55:13;60.60;;;34.72;;
45198;SDS011;30941;46.422;18.772;2022-11-15T06:57:45;54.65;;;31.92;;
45198;SDS011;30941;46.422;18.772;2022-11-15T07:00:12;61.38;;;33.00;;
45198;SDS011;30941;46.422;18.772;2022-11-15T07:02:37;57.25;;;32.53;;
45198;SDS011;30941;46.422;18.772;2022-11-15T07:05:03;61.13;;;33.30;;
45198;SDS011;30941;46.422;18.772;2022-11-15T07:07:28;60.40;;;32.08;;
45198;SDS011;30941;46.422;18.772;2022-11-15T07:09:54;64.15;;;35.08;;
45198;SDS011;30941;46.422;18.772;2022-11-15T07:12:19;60.88;;;33.40;;
45198;SDS011;30941;46.422;18.772;2022-11-15T07:14:44;57.83;;;32.47;;
45198;SDS011;30941;46.422;18.772;2022-11-15T07:17:10;60.05;;;34.92;;
45198;SDS011;30941;46.422;18.772;2022-11-15T07:19:35;61.85;;;34.50;;
45198;SDS011;30941;46.422;18.772;2022-11-15T07:22:00;62.50;;;34.70;;
45198;SDS011;30941;46.422;18.772;2022-11-15T07:24:26;70.80;;;36.53;;
45198;SDS011;30941;46.422;18.772;2022-11-15T07:26:51;65.53;;;36.92;;
45198;SDS011;30941;46.422;18.772;2022-11-15T07:29:16;74.63;;;36.95;;
45198;SDS011;30941;46.422;18.772;2022-11-15T07:31:42;66.15;;;36.33;;
45198;SDS011;30941;46.422;18.772;2022-11-15T07:34:07;66.72;;;35.97;;
45198;SDS011;30941;46.422;18.772;2022-11-15T07:36:33;67.40;;;35.58;;
45198;SDS011;30941;46.422;18.772;2022-11-15T07:38:58;63.22;;;34.47;;
45198;SDS011;30941;46.422;18.772;2022-11-15T07:41:24;63.85;;;34.08;;
45198;SDS011;30941;46.422;18.772;2022-11-15T07:43:52;63.42;;;34.78;;
45198;SDS011;30941;46.422;18.772;2022-11-15T07:46:17;59.15;;;32.50;;
45198;SDS011;30941;46.422;18.772;2022-11-15T07:48:43;60.22;;;33.45;;
45198;SDS011;30941;46.422;18.772;2022-11-15T07:51:10;56.13;;;32.17;;
45198;SDS011;30941;46.422;18.772;2022-11-15T07:53:37;64.78;;;36.45;;
45198;SDS011;30941;46.422;18.772;2022-11-15T07:56:02;69.28;;;34.55;;
45198;SDS011;30941;46.422;18.772;2022-11-15T07:58:27;62.42;;;35.75;;
45198;SDS011;30941;46.422;18.772;2022-11-15T08:00:53;62.80;;;34.53;;
45198;SDS011;30941;46.422;18.772;2022-11-15T08:03:18;61.08;;;33.08;;
45198;SDS011;30941;46.422;18.772;2022-11-15T08:05:43;62.83;;;34.65;;
45198;SDS011;30941;46.422;18.772;2022-11-15T08:08:15;68.75;;;35.70;;
45198;SDS011;30941;46.422;18.772;2022-11-15T08:10:41;73.60;;;38.88;;
45198;SDS011;30941;46.422;18.772;2022-11-15T08:13:08;78.97;;;36.90;;
45198;SDS011;30941;46.422;18.772;2022-11-15T08:15:35;72.40;;;35.95;;
45198;SDS011;30941;46.422;18.772;2022-11-15T08:18:02;73.15;;;37.08;;
45198;SDS011;30941;46.422;18.772;2022-11-15T08:20:29;72.43;;;38.22;;
45198;SDS011;30941;46.422;18.772;2022-11-15T08:22:58;64.93;;;35.67;;
45198;SDS011;30941;46.422;18.772;2022-11-15T08:25:25;65.95;;;35.92;;
45198;SDS011;30941;46.422;18.772;2022-11-15T08:27:54;58.83;;;33.65;;
45198;SDS011;30941;46.422;18.772;2022-11-15T08:30:21;58.42;;;33.78;;
45198;SDS011;30941;46.422;18.772;2022-11-15T08:32:47;62.17;;;33.30;;
45198;SDS011;30941;46.422;18.772;2022-11-15T08:35:13;63.25;;;34.63;;
45198;SDS011;30941;46.422;18.772;2022-11-15T08:37:38;67.68;;;36.70;;
45198;SDS011;30941;46.422;18.772;2022-11-15T08:40:04;61.75;;;33.10;;
45198;SDS011;30941;46.422;18.772;2022-11-15T08:42:30;62.10;;;33.10;;
45198;SDS011;30941;46.422;18.772;2022-11-15T08:44:55;58.58;;;32.30;;
45198;SDS011;30941;46.422;18.772;2022-11-15T08:47:21;65.68;;;36.17;;
45198;SDS011;30941;46.422;18.772;2022-11-15T08:49:46;58.58;;;33.63;;
45198;SDS011;30941;46.422;18.772;2022-11-15T08:52:11;55.70;;;32.70;;
45198;SDS011;30941;46.422;18.772;2022-11-15T08:54:37;58.03;;;33.17;;
45198;SDS011;30941;46.422;18.772;2022-11-15T08:57:02;54.80;;;31.92;;
45198;SDS011;30941;46.422;18.772;2022-11-15T08:59:27;55.38;;;33.65;;
45198;SDS011;30941;46.422;18.772;2022-11-15T09:01:53;62.65;;;35.53;;
45198;SDS011;30941;46.422;18.772;2022-11-15T09:04:18;52.70;;;32.53;;
45198;SDS011;30941;46.422;18.772;2022-11-15T09:06:43;53.67;;;33.88;;
45198;SDS011;30941;46.422;18.772;2022-11-15T09:09:09;49.50;;;30.27;;
45198;SDS011;30941;46.422;18.772;2022-11-15T09:11:34;51.88;;;30.13;;
45198;SDS011;30941;46.422;18.772;2022-11-15T09:14:00;42.10;;;26.75;;
45198;SDS011;30941;46.422;18.772;2022-11-15T09:16:25;61.92;;;29.80;;
45198;SDS011;30941;46.422;18.772;2022-11-15T09:18:51;41.60;;;25.42;;
45198;SDS011;30941;46.422;18.772;2022-11-15T09:21:17;41.88;;;26.63;;
45198;SDS011;30941;46.422;18.772;2022-11-15T09:23:43;43.88;;;26.05;;
45198;SDS011;30941;46.422;18.772;2022-11-15T09:26:08;46.03;;;26.30;;
45198;SDS011;30941;46.422;18.772;2022-11-15T09:28:33;44.97;;;27.23;;
45198;SDS011;30941;46.422;18.772;2022-11-15T09:31:03;40.78;;;26.63;;
45198;SDS011;30941;46.422;18.772;2022-11-15T09:33:29;41.40;;;25.90;;
45198;SDS011;30941;46.422;18.772;2022-11-15T09:35:59;46.72;;;28.92;;
45198;SDS011;30941;46.422;18.772;2022-11-15T09:38:26;41.95;;;25.35;;
45198;SDS011;30941;46.422;18.772;2022-11-15T09:40:53;40.65;;;25.00;;
45198;SDS011;30941;46.422;18.772;2022-11-15T09:48:55;40.10;;;24.70;;
45198;SDS011;30941;46.422;18.772;2022-11-15T09:54:10;41.60;;;25.98;;
45198;SDS011;30941;46.422;18.772;2022-11-15T09:56:39;41.47;;;26.15;;
45198;SDS011;30941;46.422;18.772;2022-11-15T10:04:22;35.20;;;22.90;;
45198;SDS011;30941;46.422;18.772;2022-11-15T10:09:39;39.00;;;24.75;;
45198;SDS011;30941;46.422;18.772;2022-11-15T10:12:09;42.97;;;24.70;;
45198;SDS011;30941;46.422;18.772;2022-11-15T10:14:35;41.10;;;26.92;;
45198;SDS011;30941;46.422;18.772;2022-11-15T10:17:05;39.92;;;26.88;;
45198;SDS011;30941;46.422;18.772;2022-11-15T10:22:41;39.65;;;26.45;;
45198;SDS011;30941;46.422;18.772;2022-11-15T10:25:12;46.55;;;28.50;;
45198;SDS011;30941;46.422;18.772;2022-11-15T10:27:39;45.22;;;29.13;;
45198;SDS011;30941;46.422;18.772;2022-11-15T10:30:10;55.72;;;32.95;;
45198;SDS011;30941;46.422;18.772;2022-11-15T10:32:38;50.45;;;30.85;;
45198;SDS011;30941;46.422;18.772;2022-11-15T10:35:17;54.53;;;32.53;;
45198;SDS011;30941;46.422;18.772;2022-11-15T10:37:43;56.53;;;33.90;;
45198;SDS011;30941;46.422;18.772;2022-11-15T10:40:16;49.85;;;30.95;;
45198;SDS011;30941;46.422;18.772;2022-11-15T10:42:42;47.53;;;29.27;;
45198;SDS011;30941;46.422;18.772;2022-11-15T10:45:23;47.05;;;29.45;;
45198;SDS011;30941;46.422;18.772;2022-11-15T10:47:49;44.17;;;29.13;;
45198;SDS011;30941;46.422;18.772;2022-11-15T10:50:28;44.78;;;29.30;;
45198;SDS011;30941;46.422;18.772;2022-11-15T10:52:55;48.40;;;30.67;;
45198;SDS011;30941;46.422;18.772;2022-11-15T10:55:25;48.58;;;31.17;;
45198;SDS011;30941;46.422;18.772;2022-11-15T10:58:06;50.13;;;32.30;;
45198;SDS011;30941;46.422;18.772;2022-11-15T11:00:52;52.67;;;32.80;;
45198;SDS011;30941;46.422;18.772;2022-11-15T11:06:03;48.65;;;28.90;;
45198;SDS011;30941;46.422;18.772;2022-11-15T11:08:30;51.78;;;31.38;;
45198;SDS011;30941;46.422;18.772;2022-11-15T11:10:57;46.72;;;31.13;;
45198;SDS011;30941;46.422;18.772;2022-11-15T11:13:28;50.58;;;32.03;;
45198;SDS011;30941;46.422;18.772;2022-11-15T11:18:51;56.42;;;33.45;;
45198;SDS011;30941;46.422;18.772;2022-11-15T11:37:32;41.95;;;27.73;;
45198;SDS011;30941;46.422;18.772;2022-11-15T11:40:14;45.67;;;29.13;;
45198;SDS011;30941;46.422;18.772;2022-11-15T11:43:05;43.35;;;28.02;;
45198;SDS011;30941;46.422;18.772;2022-11-15T11:51:26;42.58;;;28.58;;
45198;SDS011;30941;46.422;18.772;2022-11-15T11:53:57;43.03;;;28.17;;
45198;SDS011;30941;46.422;18.772;2022-11-15T11:56:29;46.63;;;28.67;;
45198;SDS011;30941;46.422;18.772;2022-11-15T11:59:10;46.20;;;30.02;;
45198;SDS011;30941;46.422;18.772;2022-11-15T12:01:41;44.53;;;29.42;;
45198;SDS011;30941;46.422;18.772;2022-11-15T12:17:08;49.63;;;31.42;;
45198;SDS011;30941;46.422;18.772;2022-11-15T12:19:34;49.58;;;32.03;;
45198;SDS011;30941;46.422;18.772;2022-11-15T12:22:02;53.33;;;31.15;;
45198;SDS011;30941;46.422;18.772;2022-11-15T12:25:02;50.30;;;32.20;;
45198;SDS011;30941;46.422;18.772;2022-11-15T12:30:00;53.25;;;31.73;;
45198;SDS011;30941;46.422;18.772;2022-11-15T12:32:36;51.67;;;33.47;;
45198;SDS011;30941;46.422;18.772;2022-11-15T12:35:03;51.45;;;32.08;;
45198;SDS011;30941;46.422;18.772;2022-11-15T12:37:46;50.47;;;32.13;;
45198;SDS011;30941;46.422;18.772;2022-11-15T12:40:23;50.00;;;30.63;;
45198;SDS011;30941;46.422;18.772;2022-11-15T12:43:32;49.17;;;30.40;;
45198;SDS011;30941;46.422;18.772;2022-11-15T12:48:58;52.63;;;30.15;;
45198;SDS011;30941;46.422;18.772;2022-11-15T13:12:53;49.58;;;31.65;;
45198;SDS011;30941;46.422;18.772;2022-11-15T13:17:53;50.60;;;32.55;;
45198;SDS011;30941;46.422;18.772;2022-11-15T13:20:20;49.80;;;31.15;;
45198;SDS011;30941;46.422;18.772;2022-11-15T13:28:01;57.08;;;34.33;;
45198;SDS011;30941;46.422;18.772;2022-11-15T13:30:56;53.92;;;32.90;;
45198;SDS011;30941;46.422;18.772;2022-11-15T13:33:34;60.03;;;33.75;;
45198;SDS011;30941;46.422;18.772;2022-11-15T13:36:01;58.15;;;34.30;;
45198;SDS011;30941;46.422;18.772;2022-11-15T13:38:31;61.92;;;38.53;;
45198;SDS011;30941;46.422;18.772;2022-11-15T13:40:59;65.28;;;37.53;;
45198;SDS011;30941;46.422;18.772;2022-11-15T13:48:47;81.73;;;41.43;;
45198;SDS011;30941;46.422;18.772;2022-11-15T13:51:30;75.13;;;38.88;;
45198;SDS011;30941;46.422;18.772;2022-11-15T13:53:58;73.38;;;38.92;;
45198;SDS011;30941;46.422;18.772;2022-11-15T13:56:26;77.85;;;38.28;;
45198;SDS011;30941;46.422;18.772;2022-11-15T13:58:52;79.22;;;40.22;;
45198;SDS011;30941;46.422;18.772;2022-11-15T14:01:19;71.28;;;37.13;;
45198;SDS011;30941;46.422;18.772;2022-11-15T14:03:50;71.10;;;36.13;;
45198;SDS011;30941;46.422;18.772;2022-11-15T14:06:25;64.25;;;35.45;;
45198;SDS011;30941;46.422;18.772;2022-11-15T14:11:36;63.83;;;34.70;;
45198;SDS011;30941;46.422;18.772;2022-11-15T14:14:11;71.00;;;37.33;;
45198;SDS011;30941;46.422;18.772;2022-11-15T14:16:42;70.95;;;36.20;;
45198;SDS011;30941;46.422;18.772;2022-11-15T14:19:12;80.90;;;39.55;;
45198;SDS011;30941;46.422;18.772;2022-11-15T14:24:40;69.13;;;38.50;;
45198;SDS011;30941;46.422;18.772;2022-11-15T14:27:19;81.82;;;38.78;;
45198;SDS011;30941;46.422;18.772;2022-11-15T14:29:52;77.53;;;39.47;;
45198;SDS011;30941;46.422;18.772;2022-11-15T14:32:19;80.07;;;40.10;;
45198;SDS011;30941;46.422;18.772;2022-11-15T14:34:53;80.22;;;40.30;;
45198;SDS011;30941;46.422;18.772;2022-11-15T14:39:47;75.82;;;38.55;;
45198;SDS011;30941;46.422;18.772;2022-11-15T14:42:13;80.95;;;38.97;;
45198;SDS011;30941;46.422;18.772;2022-11-15T14:44:38;73.63;;;37.83;;
45198;SDS011;30941;46.422;18.772;2022-11-15T14:47:04;66.70;;;37.28;;
45198;SDS011;30941;46.422;18.772;2022-11-15T14:49:29;77.45;;;39.47;;
45198;SDS011;30941;46.422;18.772;2022-11-15T14:51:54;77.18;;;39.10;;
45198;SDS011;30941;46.422;18.772;2022-11-15T14:54:20;75.90;;;38.53;;
45198;SDS011;30941;46.422;18.772;2022-11-15T14:56:45;81.97;;;40.42;;
45198;SDS011;30941;46.422;18.772;2022-11-15T14:59:10;87.72;;;43.03;;
45198;SDS011;30941;46.422;18.772;2022-11-15T15:01:36;86.57;;;42.35;;
45198;SDS011;30941;46.422;18.772;2022-11-15T15:04:01;90.03;;;42.97;;
45198;SDS011;30941;46.422;18.772;2022-11-15T15:06:26;93.20;;;45.08;;
45198;SDS011;30941;46.422;18.772;2022-11-15T15:08:52;92.47;;;45.33;;
45198;SDS011;30941;46.422;18.772;2022-11-15T15:11:24;85.15;;;42.63;;
45198;SDS011;30941;46.422;18.772;2022-11-15T15:13:52;94.35;;;44.78;;
45198;SDS011;30941;46.422;18.772;2022-11-15T15:16:21;110.60;;;47.58;;
45198;SDS011;30941;46.422;18.772;2022-11-15T15:18:46;105.72;;;49.38;;
45198;SDS011;30941;46.422;18.772;2022-11-15T15:21:22;103.38;;;47.03;;
45198;SDS011;30941;46.422;18.772;2022-11-15T15:23:48;101.15;;;45.58;;
45198;SDS011;30941;46.422;18.772;2022-11-15T15:26:14;111.60;;;48.25;;
45198;SDS011;30941;46.422;18.772;2022-11-15T15:28:39;100.13;;;47.80;;
45198;SDS011;30941;46.422;18.772;2022-11-15T15:31:05;107.18;;;46.92;;
45198;SDS011;30941;46.422;18.772;2022-11-15T15:33:31;101.32;;;47.50;;
45198;SDS011;30941;46.422;18.772;2022-11-15T15:35:56;102.65;;;47.40;;
45198;SDS011;30941;46.422;18.772;2022-11-15T15:38:22;113.35;;;50.15;;
45198;SDS011;30941;46.422;18.772;2022-11-15T15:40:47;106.30;;;48.47;;
45198;SDS011;30941;46.422;18.772;2022-11-15T15:43:13;117.45;;;47.92;;
45198;SDS011;30941;46.422;18.772;2022-11-15T15:45:38;104.55;;;48.33;;
45198;SDS011;30941;46.422;18.772;2022-11-15T15:48:05;108.25;;;47.97;;
45198;SDS011;30941;46.422;18.772;2022-11-15T15:50:34;98.10;;;46.67;;
45198;SDS011;30941;46.422;18.772;2022-11-15T15:53:00;102.53;;;49.22;;
45198;SDS011;30941;46.422;18.772;2022-11-15T15:55:27;111.93;;;50.63;;
45198;SDS011;30941;46.422;18.772;2022-11-15T15:57:53;106.30;;;49.95;;
45198;SDS011;30941;46.422;18.772;2022-11-15T16:00:18;108.30;;;49.35;;
45198;SDS011;30941;46.422;18.772;2022-11-15T16:02:45;124.75;;;56.17;;
45198;SDS011;30941;46.422;18.772;2022-11-15T16:05:10;130.02;;;57.03;;
45198;SDS011;30941;46.422;18.772;2022-11-15T16:07:36;118.85;;;52.97;;
45198;SDS011;30941;46.422;18.772;2022-11-15T16:10:04;128.13;;;55.45;;
45198;SDS011;30941;46.422;18.772;2022-11-15T16:12:38;132.68;;;55.25;;
45198;SDS011;30941;46.422;18.772;2022-11-15T16:15:03;137.48;;;57.67;;
45198;SDS011;30941;46.422;18.772;2022-11-15T16:17:33;139.32;;;58.97;;
45198;SDS011;30941;46.422;18.772;2022-11-15T16:20:06;127.32;;;54.95;;
45198;SDS011;30941;46.422;18.772;2022-11-15T16:22:32;142.70;;;58.20;;
45198;SDS011;30941;46.422;18.772;2022-11-15T16:24:57;146.38;;;58.65;;
45198;SDS011;30941;46.422;18.772;2022-11-15T16:27:22;141.13;;;59.22;;
45198;SDS011;30941;46.422;18.772;2022-11-15T16:29:48;145.70;;;59.83;;
45198;SDS011;30941;46.422;18.772;2022-11-15T16:32:14;143.25;;;58.90;;
45198;SDS011;30941;46.422;18.772;2022-11-15T16:34:40;148.93;;;60.97;;
45198;SDS011;30941;46.422;18.772;2022-11-15T16:37:05;155.27;;;60.80;;
45198;SDS011;30941;46.422;18.772;2022-11-15T16:39:33;154.90;;;61.13;;
45198;SDS011;30941;46.422;18.772;2022-11-15T16:41:58;146.60;;;61.47;;
45198;SDS011;30941;46.422;18.772;2022-11-15T16:44:24;154.40;;;61.83;;